首页
METAR-TAF:

METAR-TAF

机场 :

阿尔伯特, 法国

纬度: 49-58-21N, 经度: 002-41-29E, 海拔: 111米

当前天气观测

该预报发布于16分钟前的15:30 UTC
风速3节,风向西转西北
温度 6°C
湿度 81%
气压 1028 hPa
能见度10公里或以上
少量云层高于3100英尺
阴天层高于21000英尺

METAR: LFAQ 181530Z AUTO 30003KT 9999 FEW031 OVC210 06/03 Q1028 NOSIG

时间: 16:46 (15:46 UTC)

预报

该预报发布于1小时和46分钟前的14:00 UTC
预报有效从18日的 15点(UTC)到 18日的 24点(UTC)
风速5节,风向西北
能见度10公里或以上
散云层高于2000英尺

TAF: LFAQ 181400Z 1815/1824 32005KT 9999 SCT020

超过4000个机场的气象观测和天气预报(METAR&TAF报告)。

可查询的气象台以黄色和红色小点在地图上表示。

将鼠标移到小点上方,可查看气象台名称。

然后点击查看天气观测和预报。

如需切换地图:点击带黑十字的绿色按钮放大地图;点击带横线的绿色按钮缩小地图;或者点击绿色箭头查看邻近地区的地图。


METAR-TAF: